createdAt,value
2022-10-30T00:01:16.762Z,100518.75
2022-10-30T00:03:44.594Z,100511.09
2022-10-30T00:06:12.467Z,100509.09
2022-10-30T00:08:39.653Z,100516.03
2022-10-30T00:11:08.923Z,100507.41
2022-10-30T00:13:37.231Z,100517.31
2022-10-30T00:16:08.446Z,100510.22
2022-10-30T00:18:37.109Z,100520.44
2022-10-30T00:21:13.224Z,100518.47
2022-10-30T00:23:49.779Z,100533.19
2022-10-30T00:26:18.186Z,100538.41
2022-10-30T00:28:50.221Z,100507.13
2022-10-30T00:31:17.653Z,100499.91
2022-10-30T00:33:48.597Z,100492.13
2022-10-30T00:36:16.046Z,100517.59
2022-10-30T00:38:43.255Z,100521.16
2022-10-30T00:41:17.125Z,100511.94
2022-10-30T00:43:44.558Z,100504.88
2022-10-30T00:46:23.888Z,100517.84
2022-10-30T00:48:56.640Z,100509.38
2022-10-30T00:51:24.190Z,100510.22
2022-10-30T00:53:52.510Z,100521.81
2022-10-30T00:56:22.138Z,100524.69
2022-10-30T00:59:07.645Z,100524.66
2022-10-30T01:01:39.374Z,100532.03
2022-10-30T01:04:07.547Z,100533.16
2022-10-30T01:06:42.259Z,100520.69
2022-10-30T01:09:09.552Z,100538.34
2022-10-30T01:11:36.910Z,100525.19
2022-10-30T01:14:07.971Z,100522.31
2022-10-30T01:17:12.399Z,100538.50
2022-10-30T01:19:55.059Z,100535.41
2022-10-30T01:22:43.744Z,100546.13
2022-10-30T01:25:33.001Z,100535.22
2022-10-30T01:28:28.634Z,100534.38
2022-10-30T01:31:15.609Z,100527.81
2022-10-30T01:33:42.772Z,100526.81
2022-10-30T01:36:17.852Z,100524.56
2022-10-30T01:38:52.050Z,100520.59
2022-10-30T01:41:19.686Z,100522.59
2022-10-30T01:43:53.208Z,100519.00
2022-10-30T01:46:20.505Z,100511.50
2022-10-30T01:49:07.569Z,100513.44
2022-10-30T01:52:00.899Z,100510.03
2022-10-30T01:54:49.430Z,100523.53
2022-10-30T01:57:49.207Z,100518.31
2022-10-30T02:00:17.457Z,100505.13
2022-10-30T02:02:50.376Z,100528.78
2022-10-30T02:05:44.101Z,100517.00
2022-10-30T02:08:11.723Z,100505.31
2022-10-30T02:10:42.578Z,100508.13
2022-10-30T02:13:11.097Z,100501.59
2022-10-30T02:15:39.273Z,100518.22
2022-10-30T02:18:06.553Z,100513.09
2022-10-30T02:20:33.901Z,100514.50
2022-10-30T02:23:01.733Z,100505.88
2022-10-30T02:25:34.027Z,100516.97
2022-10-30T02:28:01.726Z,100521.31
2022-10-30T02:30:31.416Z,100514.84
2022-10-30T02:33:01.655Z,100504.22
2022-10-30T02:35:30.121Z,100500.38
2022-10-30T02:37:57.670Z,100511.97
2022-10-30T02:40:26.497Z,100507.59
2022-10-30T02:42:54.902Z,100502.22
2022-10-30T02:45:22.710Z,100499.94
2022-10-30T02:47:50.369Z,100511.72
2022-10-30T02:50:17.916Z,100503.53
2022-10-30T02:52:45.361Z,100507.13
2022-10-30T02:55:13.004Z,100503.28
2022-10-30T02:57:42.249Z,100494.31
2022-10-30T03:00:10.223Z,100515.25
2022-10-30T03:02:37.672Z,100502.16
2022-10-30T03:05:05.137Z,100508.84
2022-10-30T03:07:32.691Z,100511.59
2022-10-30T03:09:59.901Z,100499.28
2022-10-30T03:12:27.089Z,100513.81
2022-10-30T03:14:54.436Z,100508.97
2022-10-30T03:17:21.582Z,100509.69
2022-10-30T03:19:49.538Z,100515.56
2022-10-30T03:22:17.026Z,100515.53
2022-10-30T03:24:44.182Z,100512.84
2022-10-30T03:27:11.725Z,100507.34
2022-10-30T03:29:40.291Z,100501.91
2022-10-30T03:32:11.937Z,100509.38
2022-10-30T03:34:50.999Z,100518.72
2022-10-30T03:37:19.565Z,100523.84
2022-10-30T03:39:46.709Z,100516.81
2022-10-30T03:42:14.822Z,100518.66
2022-10-30T03:44:42.027Z,100511.13
2022-10-30T03:47:09.324Z,100507.13
2022-10-30T03:49:41.772Z,100510.50
2022-10-30T03:52:12.783Z,100523.16
2022-10-30T03:54:39.991Z,100530.84
2022-10-30T03:57:08.619Z,100538.59
2022-10-30T03:59:48.519Z,100540.81
2022-10-30T04:02:38.764Z,100530.09
2022-10-30T04:05:06.266Z,100528.91
2022-10-30T04:07:33.450Z,100522.88
2022-10-30T04:10:00.898Z,100524.25
2022-10-30T04:12:29.521Z,100530.94
2022-10-30T04:14:57.045Z,100529.00
2022-10-30T04:17:24.202Z,100525.59
2022-10-30T04:19:51.451Z,100523.06
2022-10-30T04:22:19.000Z,100523.84
2022-10-30T04:24:49.156Z,100521.38
2022-10-30T04:27:17.018Z,100524.91
2022-10-30T04:29:44.423Z,100529.84
2022-10-30T04:32:11.816Z,100518.94
2022-10-30T04:34:39.673Z,100522.06
2022-10-30T04:37:07.664Z,100525.69
2022-10-30T04:39:34.884Z,100524.72
2022-10-30T04:42:12.357Z,100526.69
2022-10-30T04:44:40.929Z,100532.22
2022-10-30T04:47:09.117Z,100529.97
2022-10-30T04:49:36.552Z,100532.53
2022-10-30T04:52:03.688Z,100535.94
2022-10-30T04:54:30.915Z,100540.69
2022-10-30T04:56:58.342Z,100537.94
2022-10-30T04:59:25.582Z,100549.88
2022-10-30T05:01:54.636Z,100546.44
2022-10-30T05:04:22.201Z,100543.03
2022-10-30T05:06:49.733Z,100537.94
2022-10-30T05:09:17.095Z,100548.69
2022-10-30T05:11:44.417Z,100551.06
2022-10-30T05:14:11.911Z,100551.13
2022-10-30T05:16:39.358Z,100542.63
2022-10-30T05:19:07.404Z,100537.09
2022-10-30T05:21:35.613Z,100535.47
2022-10-30T05:24:03.071Z,100525.72
2022-10-30T05:26:38.523Z,100522.31
2022-10-30T05:29:05.785Z,100529.13
2022-10-30T05:31:33.077Z,100532.78
2022-10-30T05:34:07.525Z,100526.78
2022-10-30T05:36:37.931Z,100537.38
2022-10-30T05:39:05.854Z,100534.03
2022-10-30T05:41:36.921Z,100524.22
2022-10-30T05:44:04.617Z,100527.78
2022-10-30T05:46:33.390Z,100530.00
2022-10-30T05:49:11.935Z,100524.28
2022-10-30T05:51:40.702Z,100537.56
2022-10-30T05:54:10.844Z,100529.91
2022-10-30T05:56:44.463Z,100531.63
2022-10-30T05:59:12.532Z,100534.50
2022-10-30T06:01:39.864Z,100535.06
2022-10-30T06:04:12.600Z,100539.47
2022-10-30T06:06:39.841Z,100541.25
2022-10-30T06:09:07.283Z,100538.25
2022-10-30T06:11:58.743Z,100543.66
2022-10-30T06:14:44.730Z,100537.97
2022-10-30T06:17:12.050Z,100544.34
2022-10-30T06:19:59.722Z,100541.97
2022-10-30T06:23:06.329Z,100545.22
2022-10-30T06:25:43.184Z,100556.25
2022-10-30T06:28:33.525Z,100558.66
2022-10-30T06:31:01.149Z,100546.66
2022-10-30T06:33:28.388Z,100539.19
2022-10-30T06:35:56.044Z,100550.00
2022-10-30T06:38:23.847Z,100552.41
2022-10-30T06:40:52.469Z,100551.72
2022-10-30T06:43:41.309Z,100542.38
2022-10-30T06:46:14.371Z,100551.56
2022-10-30T06:48:43.979Z,100540.78
2022-10-30T06:51:15.982Z,100560.50
2022-10-30T06:53:44.354Z,100564.31
2022-10-30T06:56:30.137Z,100556.97
2022-10-30T06:59:08.298Z,100568.28
2022-10-30T07:01:45.172Z,100570.72
2022-10-30T07:04:17.916Z,100581.06
2022-10-30T07:06:45.240Z,100578.78
2022-10-30T07:09:12.903Z,100575.94
2022-10-30T07:11:45.718Z,100574.66
2022-10-30T07:14:19.645Z,100585.81
2022-10-30T07:16:58.382Z,100579.72
2022-10-30T07:19:26.838Z,100593.28
2022-10-30T07:21:56.629Z,100594.28
2022-10-30T07:24:24.051Z,100582.66
2022-10-30T07:27:10.042Z,100590.03
2022-10-30T07:29:57.526Z,100596.09
2022-10-30T07:32:27.524Z,100588.53
2022-10-30T07:35:14.500Z,100592.28
2022-10-30T07:38:14.338Z,100606.00
2022-10-30T07:40:54.642Z,100604.44
2022-10-30T07:43:51.186Z,100595.91
2022-10-30T07:46:36.841Z,100603.97
2022-10-30T07:49:33.686Z,100598.56
2022-10-30T07:52:06.289Z,100595.28
2022-10-30T07:54:33.870Z,100594.78
2022-10-30T07:57:15.824Z,100596.38
2022-10-30T08:00:12.587Z,100600.94
2022-10-30T08:02:40.073Z,100587.38
2022-10-30T08:05:15.371Z,100589.41
2022-10-30T08:08:03.789Z,100594.00
2022-10-30T08:10:31.641Z,100602.38
2022-10-30T08:12:58.940Z,100610.38
2022-10-30T08:15:26.728Z,100599.94
2022-10-30T08:17:54.752Z,100600.63
2022-10-30T08:20:23.986Z,100597.81
2022-10-30T08:22:52.804Z,100598.19
2022-10-30T08:25:27.381Z,100594.00
2022-10-30T08:27:56.249Z,100601.84
2022-10-30T08:30:28.849Z,100602.25
2022-10-30T08:33:03.800Z,100601.72
2022-10-30T08:35:51.907Z,100600.88
2022-10-30T08:38:19.950Z,100588.31
2022-10-30T08:40:55.530Z,100584.63
2022-10-30T08:43:25.337Z,100592.78
2022-10-30T08:45:53.090Z,100592.00
2022-10-30T08:48:22.216Z,100596.13
2022-10-30T08:50:51.033Z,100588.38
2022-10-30T08:53:25.923Z,100594.13
2022-10-30T08:55:55.937Z,100594.63
2022-10-30T08:58:32.252Z,100598.59
2022-10-30T09:01:01.613Z,100604.00
2022-10-30T09:04:07.606Z,100602.13
2022-10-30T09:07:01.940Z,100605.19
2022-10-30T09:09:58.327Z,100611.97
2022-10-30T09:12:28.557Z,100616.03
2022-10-30T09:14:55.768Z,100615.66
2022-10-30T09:17:23.408Z,100608.06
2022-10-30T09:19:52.953Z,100600.63
2022-10-30T09:22:30.386Z,100599.59
2022-10-30T09:24:57.882Z,100605.00
2022-10-30T09:28:03.435Z,100615.66
2022-10-30T09:30:43.553Z,100619.72
2022-10-30T09:33:13.294Z,100618.66
2022-10-30T09:36:02.751Z,100632.94
2022-10-30T09:38:30.012Z,100643.84
2022-10-30T09:41:23.642Z,100651.44
2022-10-30T09:44:15.556Z,100645.47
2022-10-30T09:47:23.160Z,100633.28
2022-10-30T09:50:10.328Z,100621.47
2022-10-30T09:52:46.078Z,100620.13
2022-10-30T09:55:38.041Z,100616.00
2022-10-30T09:58:28.174Z,100616.69
2022-10-30T10:01:30.622Z,100614.66
2022-10-30T10:04:15.069Z,100623.81
2022-10-30T10:06:48.926Z,100614.31
2022-10-30T10:09:38.978Z,100612.63
2022-10-30T10:12:44.607Z,100624.13
2022-10-30T10:15:22.897Z,100621.91
2022-10-30T10:17:50.339Z,100622.38
2022-10-30T10:20:44.166Z,100631.31
2022-10-30T10:23:47.829Z,100625.03
2022-10-30T10:26:47.634Z,100631.03
2022-10-30T10:29:23.901Z,100631.03
2022-10-30T10:32:03.530Z,100623.97
2022-10-30T10:34:45.841Z,100620.81
2022-10-30T10:37:34.721Z,100626.75
2022-10-30T10:40:24.727Z,100628.25
2022-10-30T10:43:06.618Z,100621.84
2022-10-30T10:45:46.333Z,100627.13
2022-10-30T10:48:41.203Z,100626.94
2022-10-30T10:51:33.808Z,100626.22
2022-10-30T10:54:11.259Z,100626.22
2022-10-30T10:56:41.853Z,100621.13
2022-10-30T10:59:18.839Z,100620.88
2022-10-30T11:01:54.474Z,100617.97
2022-10-30T11:04:32.672Z,100623.22
2022-10-30T11:07:13.496Z,100624.72
2022-10-30T11:09:42.640Z,100614.78
2022-10-30T11:12:09.834Z,100616.22
2022-10-30T11:14:37.914Z,100625.84
2022-10-30T11:17:24.382Z,100629.06
2022-10-30T11:19:59.065Z,100629.16
2022-10-30T11:22:31.843Z,100625.91
2022-10-30T11:25:17.869Z,100622.53
2022-10-30T11:27:48.540Z,100620.88
2022-10-30T11:30:26.400Z,100634.47
2022-10-30T11:32:56.899Z,100629.06
2022-10-30T11:35:25.775Z,100633.47
2022-10-30T11:38:15.744Z,100623.81
2022-10-30T11:40:48.692Z,100624.66
2022-10-30T11:43:22.134Z,100629.09
2022-10-30T11:45:50.567Z,100617.13
2022-10-30T11:48:27.217Z,100620.06
2022-10-30T11:51:01.963Z,100621.06
2022-10-30T11:53:38.649Z,100618.41
2022-10-30T11:56:23.007Z,100624.25
2022-10-30T11:58:54.356Z,100630.28
2022-10-30T12:01:30.973Z,100620.03
2022-10-30T12:04:22.211Z,100623.91
2022-10-30T12:07:08.075Z,100616.13
2022-10-30T12:09:46.431Z,100618.94
2022-10-30T12:12:33.872Z,100616.31
2022-10-30T12:15:24.787Z,100611.91
2022-10-30T12:18:03.176Z,100605.47
2022-10-30T12:20:30.530Z,100611.72
2022-10-30T12:22:58.420Z,100606.47
2022-10-30T12:25:31.161Z,100606.72
2022-10-30T12:28:06.985Z,100605.63
2022-10-30T12:30:46.803Z,100605.47
2022-10-30T12:33:21.083Z,100599.53
2022-10-30T12:35:58.283Z,100599.94
2022-10-30T12:38:36.666Z,100588.66
2022-10-30T12:41:18.724Z,100601.28
2022-10-30T12:43:55.184Z,100590.19
2022-10-30T12:46:42.635Z,100591.78
2022-10-30T12:49:46.047Z,100596.09
2022-10-30T12:52:19.025Z,100604.63
2022-10-30T12:54:50.835Z,100592.72
2022-10-30T12:57:22.715Z,100586.41
2022-10-30T13:00:00.551Z,100590.06
2022-10-30T13:02:50.626Z,100592.25
2022-10-30T13:05:39.944Z,100594.50
2022-10-30T13:08:23.687Z,100589.72
2022-10-30T13:11:14.118Z,100598.44
2022-10-30T13:13:48.399Z,100594.06
2022-10-30T13:16:30.462Z,100601.06
2022-10-30T13:19:00.766Z,100597.72
2022-10-30T13:21:45.373Z,100593.28
2022-10-30T13:24:24.063Z,100584.78
2022-10-30T13:27:02.485Z,100583.06
2022-10-30T13:29:38.916Z,100591.38
2022-10-30T13:32:24.543Z,100594.13
2022-10-30T13:35:00.722Z,100580.09
2022-10-30T13:37:38.452Z,100566.13
2022-10-30T13:40:20.949Z,100567.44
2022-10-30T13:42:53.846Z,100567.06
2022-10-30T13:45:30.411Z,100575.31
2022-10-30T13:48:18.917Z,100563.50
2022-10-30T13:51:17.188Z,100574.09
2022-10-30T13:53:49.123Z,100575.53
2022-10-30T13:56:18.959Z,100583.25
2022-10-30T13:59:04.376Z,100577.00
2022-10-30T14:01:39.407Z,100580.44
2022-10-30T14:05:04.102Z,100577.09
2022-10-30T14:07:54.952Z,100576.69
2022-10-30T14:10:45.239Z,100575.91
2022-10-30T14:13:26.900Z,100573.00
2022-10-30T14:16:02.355Z,100581.84
2022-10-30T14:18:45.400Z,100571.31
2022-10-30T14:21:36.167Z,100577.47
2022-10-30T14:24:18.843Z,100568.19
2022-10-30T14:26:52.646Z,100581.97
2022-10-30T14:29:34.500Z,100566.97
2022-10-30T14:32:14.291Z,100571.22
2022-10-30T14:34:51.659Z,100573.19
2022-10-30T14:37:38.792Z,100571.59
2022-10-30T14:40:40.484Z,100570.31
2022-10-30T14:43:31.375Z,100565.25
2022-10-30T14:46:15.669Z,100565.19
2022-10-30T14:48:57.660Z,100566.31
2022-10-30T14:51:37.153Z,100563.97
2022-10-30T14:54:24.562Z,100573.81
2022-10-30T14:56:54.169Z,100571.50
2022-10-30T14:59:32.477Z,100564.91
2022-10-30T15:02:35.573Z,100569.44
2022-10-30T15:05:25.487Z,100560.91
2022-10-30T15:08:10.745Z,100570.06
2022-10-30T15:10:49.895Z,100560.41
2022-10-30T15:13:24.026Z,100553.75
2022-10-30T15:16:02.949Z,100553.22
2022-10-30T15:18:31.391Z,100557.25
2022-10-30T15:21:06.153Z,100551.75
2022-10-30T15:23:41.714Z,100560.56
2022-10-30T15:26:21.293Z,100560.56
2022-10-30T15:28:53.956Z,100559.59
2022-10-30T15:31:23.955Z,100566.66
2022-10-30T15:33:54.278Z,100563.25
2022-10-30T15:36:24.091Z,100560.94
2022-10-30T15:39:11.805Z,100566.63
2022-10-30T15:41:59.621Z,100557.69
2022-10-30T15:44:36.970Z,100563.41
2022-10-30T15:47:05.444Z,100572.78
2022-10-30T15:49:38.061Z,100566.84
2022-10-30T15:52:17.073Z,100573.63
2022-10-30T15:54:47.252Z,100569.81
2022-10-30T15:58:01.011Z,100571.63
2022-10-30T16:00:21.294Z,100570.34
2022-10-30T16:02:49.620Z,100577.31
2022-10-30T16:05:22.518Z,100575.53
2022-10-30T16:07:49.928Z,100565.78
2022-10-30T16:10:18.419Z,100573.84
2022-10-30T16:12:45.845Z,100570.16
2022-10-30T16:15:25.668Z,100572.63
2022-10-30T16:18:21.313Z,100569.25
2022-10-30T16:20:52.239Z,100570.97
2022-10-30T16:23:20.659Z,100566.56
2022-10-30T16:25:53.171Z,100567.84
2022-10-30T16:28:29.141Z,100565.72
2022-10-30T16:31:02.286Z,100574.81
2022-10-30T16:33:32.223Z,100582.31
2022-10-30T16:36:02.115Z,100576.25
2022-10-30T16:38:33.617Z,100574.53
2022-10-30T16:41:01.368Z,100580.47
2022-10-30T16:43:33.506Z,100570.72
2022-10-30T16:46:16.125Z,100585.59
2022-10-30T16:48:48.596Z,100577.50
2022-10-30T16:51:18.196Z,100584.03
2022-10-30T16:53:50.555Z,100583.88
2022-10-30T16:56:26.831Z,100592.25
2022-10-30T16:58:57.868Z,100586.16
2022-10-30T17:01:28.350Z,100591.13
2022-10-30T17:03:56.812Z,100588.13
2022-10-30T17:06:36.228Z,100589.13
2022-10-30T17:09:08.923Z,100589.13
2022-10-30T17:11:45.101Z,100596.09
2022-10-30T17:14:22.822Z,100597.06
2022-10-30T17:17:00.196Z,100592.94
2022-10-30T17:19:30.397Z,100603.56
2022-10-30T17:22:00.673Z,100602.00
2022-10-30T17:24:36.616Z,100599.34
2022-10-30T17:27:23.395Z,100594.06
2022-10-30T17:29:50.765Z,100600.59
2022-10-30T17:32:29.489Z,100601.75
2022-10-30T17:35:02.992Z,100599.63
2022-10-30T17:37:30.385Z,100601.31
2022-10-30T17:39:57.533Z,100598.19
2022-10-30T17:42:24.936Z,100603.69
2022-10-30T17:44:52.154Z,100604.25
2022-10-30T17:47:21.065Z,100601.41
2022-10-30T17:49:49.505Z,100590.06
2022-10-30T17:52:20.674Z,100605.00
2022-10-30T17:54:47.817Z,100591.16
2022-10-30T17:57:16.276Z,100613.91
2022-10-30T17:59:43.754Z,100604.63
2022-10-30T18:02:17.218Z,100592.44
2022-10-30T18:04:45.619Z,100600.91
2022-10-30T18:07:15.152Z,100604.56
2022-10-30T18:09:43.687Z,100598.47
2022-10-30T18:12:15.152Z,100610.22
2022-10-30T18:14:45.850Z,100599.16
2022-10-30T18:17:13.471Z,100604.53
2022-10-30T18:19:40.672Z,100608.19
2022-10-30T18:22:10.189Z,100620.38
2022-10-30T18:24:37.767Z,100614.53
2022-10-30T18:27:04.898Z,100614.91
2022-10-30T18:29:32.427Z,100606.53
2022-10-30T18:31:59.639Z,100614.72
2022-10-30T18:34:26.770Z,100617.81
2022-10-30T18:36:54.280Z,100610.47
2022-10-30T18:39:21.426Z,100608.50
2022-10-30T18:41:49.591Z,100612.72
2022-10-30T18:44:18.628Z,100615.13
2022-10-30T18:46:46.313Z,100611.66
2022-10-30T18:49:13.918Z,100609.63
2022-10-30T18:51:41.368Z,100608.06
2022-10-30T18:54:16.366Z,100616.38
2022-10-30T18:56:44.292Z,100610.69
2022-10-30T18:59:11.518Z,100608.41
2022-10-30T19:01:39.176Z,100614.50
2022-10-30T19:04:10.299Z,100602.44
2022-10-30T19:06:38.964Z,100613.50
2022-10-30T19:09:06.682Z,100612.09
2022-10-30T19:11:36.385Z,100613.31
2022-10-30T19:14:11.393Z,100617.25
2022-10-30T19:16:38.847Z,100605.22
2022-10-30T19:19:06.028Z,100609.66
2022-10-30T19:21:34.684Z,100613.19
2022-10-30T19:24:03.109Z,100620.72
2022-10-30T19:26:30.250Z,100625.91
2022-10-30T19:28:57.670Z,100620.91
2022-10-30T19:31:24.836Z,100613.66
2022-10-30T19:33:54.671Z,100612.22
2022-10-30T19:36:36.642Z,100615.38
2022-10-30T19:39:11.766Z,100615.81
2022-10-30T19:41:40.084Z,100619.09
2022-10-30T19:44:07.679Z,100603.38
2022-10-30T19:46:35.527Z,100611.16
2022-10-30T19:49:19.828Z,100609.88
2022-10-30T19:51:47.942Z,100605.13
2022-10-30T19:54:15.531Z,100606.25
2022-10-30T19:56:44.088Z,100614.78
2022-10-30T19:59:15.333Z,100611.59
2022-10-30T20:01:44.168Z,100613.25
2022-10-30T20:04:11.793Z,100624.84
2022-10-30T20:06:39.187Z,100608.19
2022-10-30T20:09:10.909Z,100615.88
2022-10-30T20:11:38.145Z,100612.41
2022-10-30T20:14:05.536Z,100616.06
2022-10-30T20:16:32.656Z,100610.88
2022-10-30T20:18:59.811Z,100618.03
2022-10-30T20:21:27.577Z,100618.31
2022-10-30T20:23:54.744Z,100610.97
2022-10-30T20:26:26.696Z,100606.78
2022-10-30T20:28:54.738Z,100608.06
2022-10-30T20:31:22.056Z,100610.34
2022-10-30T20:33:49.475Z,100596.16
2022-10-30T20:36:16.624Z,100621.44
2022-10-30T20:38:43.977Z,100610.38
2022-10-30T20:41:22.076Z,100614.09
2022-10-30T20:43:52.078Z,100608.22
2022-10-30T20:46:19.985Z,100606.13
2022-10-30T20:48:47.394Z,100601.44
2022-10-30T20:51:14.925Z,100594.94
2022-10-30T20:53:42.189Z,100601.44
2022-10-30T20:56:11.289Z,100592.34
2022-10-30T20:58:41.324Z,100594.38
2022-10-30T21:01:09.170Z,100602.47
2022-10-30T21:03:36.586Z,100591.38
2022-10-30T21:06:03.929Z,100595.81
2022-10-30T21:08:32.066Z,100595.94
2022-10-30T21:11:01.200Z,100595.94
2022-10-30T21:13:28.714Z,100597.06
2022-10-30T21:16:01.148Z,100604.44
2022-10-30T21:18:28.807Z,100590.97
2022-10-30T21:21:03.408Z,100605.00
2022-10-30T21:23:30.935Z,100598.06
2022-10-30T21:26:05.867Z,100589.69
2022-10-30T21:28:33.445Z,100600.03
2022-10-30T21:31:02.622Z,100593.22
2022-10-30T21:33:34.763Z,100585.03
2022-10-30T21:36:12.932Z,100594.94
2022-10-30T21:38:47.341Z,100597.50
2022-10-30T21:41:18.092Z,100584.44
2022-10-30T21:43:53.562Z,100584.59
2022-10-30T21:46:23.067Z,100585.16
2022-10-30T21:48:50.787Z,100589.72
2022-10-30T21:51:20.395Z,100589.00
2022-10-30T21:53:48.845Z,100583.06
2022-10-30T21:56:18.852Z,100585.59
2022-10-30T21:58:46.606Z,100587.44
2022-10-30T22:01:21.533Z,100578.66
2022-10-30T22:03:49.439Z,100586.84
2022-10-30T22:06:19.714Z,100581.28
2022-10-30T22:08:48.523Z,100577.59
2022-10-30T22:11:17.167Z,100577.28
2022-10-30T22:13:45.007Z,100580.09
2022-10-30T22:16:14.114Z,100588.91
2022-10-30T22:18:41.631Z,100575.91
2022-10-30T22:21:11.454Z,100564.63
2022-10-30T22:23:40.242Z,100579.03
2022-10-30T22:26:11.747Z,100572.59
2022-10-30T22:28:39.200Z,100581.69
2022-10-30T22:31:26.373Z,100566.13
2022-10-30T22:33:53.787Z,100571.31
2022-10-30T22:36:24.101Z,100573.09
2022-10-30T22:39:02.879Z,100572.22
2022-10-30T22:41:34.566Z,100575.44
2022-10-30T22:44:08.370Z,100578.72
2022-10-30T22:46:36.516Z,100563.47
2022-10-30T22:49:03.979Z,100567.75
2022-10-30T22:51:33.079Z,100573.13
2022-10-30T22:54:02.448Z,100568.84
2022-10-30T22:56:31.654Z,100562.38
2022-10-30T22:59:02.944Z,100568.56
2022-10-30T23:01:32.665Z,100563.06
2022-10-30T23:04:01.764Z,100564.44
2022-10-30T23:06:30.744Z,100554.69
2022-10-30T23:09:00.103Z,100567.44
2022-10-30T23:11:28.450Z,100565.06
2022-10-30T23:13:56.213Z,100557.13
2022-10-30T23:16:24.965Z,100561.66
2022-10-30T23:18:55.149Z,100569.03
2022-10-30T23:21:25.143Z,100555.41
2022-10-30T23:23:52.857Z,100558.53
2022-10-30T23:26:27.461Z,100563.75
2022-10-30T23:28:56.181Z,100564.44
2022-10-30T23:31:30.512Z,100566.78
2022-10-30T23:33:59.753Z,100566.03
2022-10-30T23:36:27.262Z,100561.13
2022-10-30T23:38:56.127Z,100565.94
2022-10-30T23:41:25.881Z,100567.00
2022-10-30T23:43:54.652Z,100568.25
2022-10-30T23:46:22.747Z,100567.38
2022-10-30T23:48:50.560Z,100568.53
2022-10-30T23:51:18.468Z,100561.00
2022-10-30T23:53:45.879Z,100576.31
2022-10-30T23:56:13.571Z,100571.59
2022-10-30T23:58:45.718Z,100564.97
